createdAt,value
2022-10-07T00:00:56.226Z,102019.78
2022-10-07T00:01:58.880Z,102020.25
2022-10-07T00:03:01.473Z,102019.13
2022-10-07T00:04:04.170Z,102016.00
2022-10-07T00:05:07.517Z,102014.44
2022-10-07T00:06:13.668Z,102021.47
2022-10-07T00:07:16.506Z,102016.78
2022-10-07T00:08:18.943Z,102018.06
2022-10-07T00:09:21.442Z,102012.47
2022-10-07T00:10:23.947Z,102017.47
2022-10-07T00:11:28.527Z,102024.91
2022-10-07T00:12:31.195Z,102024.91
2022-10-07T00:13:34.126Z,102023.91
2022-10-07T00:14:36.588Z,102022.06
2022-10-07T00:15:39.559Z,102023.44
2022-10-07T00:16:42.341Z,102023.63
2022-10-07T00:17:45.574Z,102021.06
2022-10-07T00:18:48.806Z,102017.63
2022-10-07T00:19:51.266Z,102025.06
2022-10-07T00:20:53.942Z,102015.25
2022-10-07T00:21:56.512Z,102013.41
2022-10-07T00:22:59.709Z,102009.59
2022-10-07T00:24:02.549Z,102015.34
2022-10-07T00:25:05.385Z,102016.16
2022-10-07T00:26:10.235Z,102019.56
2022-10-07T00:27:12.707Z,102017.44
2022-10-07T00:28:19.402Z,102014.19
2022-10-07T00:29:21.963Z,102012.88
2022-10-07T00:30:27.105Z,102012.44
2022-10-07T00:31:35.250Z,102018.22
2022-10-07T00:32:37.518Z,102001.94
2022-10-07T00:33:42.326Z,102007.72
2022-10-07T00:34:44.817Z,102009.97
2022-10-07T00:35:49.370Z,102005.69
2022-10-07T00:36:51.697Z,102011.94
2022-10-07T00:37:54.064Z,102007.72
2022-10-07T00:38:58.604Z,102006.16
2022-10-07T00:40:00.937Z,102002.94
2022-10-07T00:41:03.453Z,102005.34
2022-10-07T00:42:05.888Z,102004.03
2022-10-07T00:43:25.238Z,101998.66
2022-10-07T00:44:40.100Z,102004.13
2022-10-07T00:45:45.757Z,101994.66
2022-10-07T00:46:48.445Z,101997.78
2022-10-07T00:47:51.842Z,101995.25
2022-10-07T00:48:54.896Z,101997.88
2022-10-07T00:50:10.421Z,101999.13
2022-10-07T00:51:16.372Z,101996.72
2022-10-07T00:52:22.139Z,101998.06
2022-10-07T00:53:27.525Z,101997.56
2022-10-07T00:54:30.417Z,101988.56
2022-10-07T00:55:32.990Z,101989.88
2022-10-07T00:56:35.643Z,101990.06
2022-10-07T00:57:39.701Z,101989.00
2022-10-07T00:58:43.241Z,101986.56
2022-10-07T00:59:48.190Z,101975.78
2022-10-07T01:00:51.082Z,101981.06
2022-10-07T01:01:53.490Z,101975.66
2022-10-07T01:02:55.923Z,101977.22
2022-10-07T01:03:58.392Z,101987.22
2022-10-07T01:05:03.650Z,101984.31
2022-10-07T01:06:06.596Z,101985.88
2022-10-07T01:07:09.571Z,101987.44
2022-10-07T01:08:12.627Z,101985.38
2022-10-07T01:09:15.194Z,101986.66
2022-10-07T01:10:20.379Z,101985.28
2022-10-07T01:11:33.772Z,101984.47
2022-10-07T01:12:51.709Z,101986.28
2022-10-07T01:13:55.811Z,101985.22
2022-10-07T01:15:27.655Z,101989.41
2022-10-07T01:16:56.145Z,101988.94
2022-10-07T01:18:26.098Z,101986.56
2022-10-07T01:19:47.260Z,101991.28
2022-10-07T01:21:05.033Z,101987.94
2022-10-07T01:22:13.557Z,101980.59
2022-10-07T01:23:46.112Z,101981.66
2022-10-07T01:24:51.438Z,101975.91
2022-10-07T01:26:48.476Z,101978.59
2022-10-07T01:27:57.263Z,101974.88
2022-10-07T01:29:04.259Z,101978.59
2022-10-07T01:30:08.421Z,101968.09
2022-10-07T01:31:12.934Z,101971.25
2022-10-07T01:32:22.181Z,101963.91
2022-10-07T01:33:29.614Z,101964.47
2022-10-07T01:34:34.435Z,101963.91
2022-10-07T01:35:37.515Z,101964.28
2022-10-07T01:36:51.140Z,101964.66
2022-10-07T01:38:00.678Z,101959.66
2022-10-07T01:39:09.907Z,101966.63
2022-10-07T01:40:16.191Z,101967.44
2022-10-07T01:41:23.170Z,101964.31
2022-10-07T01:42:28.987Z,101970.44
2022-10-07T01:43:33.101Z,101964.91
2022-10-07T01:44:35.520Z,101961.88
2022-10-07T01:45:41.320Z,101966.63
2022-10-07T01:46:44.624Z,101960.22
2022-10-07T01:47:50.589Z,101960.22
2022-10-07T01:48:54.629Z,101955.53
2022-10-07T01:49:57.218Z,101959.53
2022-10-07T01:51:02.340Z,101957.09
2022-10-07T01:52:07.567Z,101957.41
2022-10-07T01:53:27.654Z,101966.38
2022-10-07T01:54:50.769Z,101958.53
2022-10-07T01:56:02.394Z,101963.50
2022-10-07T01:57:18.487Z,101959.81
2022-10-07T01:58:50.951Z,101961.78
2022-10-07T02:00:11.496Z,101961.78
2022-10-07T02:01:29.046Z,101964.94
2022-10-07T02:03:00.847Z,101968.09
2022-10-07T02:04:25.669Z,101970.19
2022-10-07T02:05:40.100Z,101972.81
2022-10-07T02:07:05.352Z,101970.72
2022-10-07T02:08:22.918Z,101972.31
2022-10-07T02:09:40.410Z,101966.34
2022-10-07T02:11:00.651Z,101972.31
2022-10-07T02:12:13.440Z,101965.72
2022-10-07T02:13:48.702Z,101970.50
2022-10-07T02:15:05.855Z,101969.97
2022-10-07T02:16:48.422Z,101966.53
2022-10-07T02:18:02.871Z,101964.41
2022-10-07T02:19:15.754Z,101956.50
2022-10-07T02:20:21.527Z,101959.63
2022-10-07T02:21:29.738Z,101967.31
2022-10-07T02:22:34.408Z,101966.03
2022-10-07T02:23:40.863Z,101962.31
2022-10-07T02:24:47.397Z,101960.25
2022-10-07T02:25:53.808Z,101966.34
2022-10-07T02:26:59.341Z,101959.25
2022-10-07T02:28:05.745Z,101961.34
2022-10-07T02:29:12.815Z,101957.63
2022-10-07T02:30:19.064Z,101963.53
2022-10-07T02:31:26.658Z,101961.88
2022-10-07T02:32:30.920Z,101962.25
2022-10-07T02:33:34.799Z,101961.69
2022-10-07T02:34:41.312Z,101960.41
2022-10-07T02:35:46.753Z,101961.47
2022-10-07T02:36:53.115Z,101962.47
2022-10-07T02:38:00.394Z,101957.50
2022-10-07T02:39:05.132Z,101967.81
2022-10-07T02:40:12.261Z,101956.97
2022-10-07T02:41:33.344Z,101956.47
2022-10-07T02:42:55.853Z,101957.91
2022-10-07T02:44:07.790Z,101956.03
2022-10-07T02:45:21.224Z,101960.28
2022-10-07T02:46:32.907Z,101960.81
2022-10-07T02:47:51.380Z,101954.75
2022-10-07T02:49:09.748Z,101956.47
2022-10-07T02:50:17.901Z,101959.69
2022-10-07T02:51:25.410Z,101954.22
2022-10-07T02:52:31.541Z,101954.13
2022-10-07T02:53:36.565Z,101955.41
2022-10-07T02:54:44.586Z,101953.63
2022-10-07T02:55:50.500Z,101959.41
2022-10-07T02:56:56.548Z,101952.25
2022-10-07T02:58:04.601Z,101951.19
2022-10-07T02:59:10.136Z,101949.88
2022-10-07T03:00:14.564Z,101947.78
2022-10-07T03:01:29.898Z,101953.91
2022-10-07T03:02:42.564Z,101946.66
2022-10-07T03:03:46.013Z,101948.41
2022-10-07T03:04:48.726Z,101954.22
2022-10-07T03:05:52.279Z,101956.31
2022-10-07T03:06:55.115Z,101952.47
2022-10-07T03:08:06.418Z,101954.84
2022-10-07T03:09:09.449Z,101949.03
2022-10-07T03:10:11.897Z,101950.38
2022-10-07T03:11:14.426Z,101955.66
2022-10-07T03:12:17.431Z,101951.97
2022-10-07T03:13:19.911Z,101951.97
2022-10-07T03:14:27.386Z,101954.59
2022-10-07T03:15:29.794Z,101951.19
2022-10-07T03:16:32.779Z,101945.72
2022-10-07T03:17:35.330Z,101950.66
2022-10-07T03:18:38.040Z,101944.56
2022-10-07T03:19:46.903Z,101938.63
2022-10-07T03:20:51.254Z,101943.63
2022-10-07T03:21:54.412Z,101943.88
2022-10-07T03:22:56.717Z,101936.50
2022-10-07T03:24:00.991Z,101939.69
2022-10-07T03:25:06.833Z,101940.97
2022-10-07T03:26:09.221Z,101935.25
2022-10-07T03:27:11.798Z,101933.44
2022-10-07T03:28:15.344Z,101942.31
2022-10-07T03:29:17.888Z,101938.34
2022-10-07T03:30:24.426Z,101931.50
2022-10-07T03:31:29.247Z,101942.81
2022-10-07T03:32:34.364Z,101938.63
2022-10-07T03:33:37.565Z,101934.28
2022-10-07T03:34:41.309Z,101939.78
2022-10-07T03:35:44.024Z,101936.06
2022-10-07T03:36:46.671Z,101929.72
2022-10-07T03:37:49.042Z,101935.78
2022-10-07T03:38:52.068Z,101936.06
2022-10-07T03:39:55.380Z,101937.91
2022-10-07T03:40:57.932Z,101938.88
2022-10-07T03:42:01.057Z,101932.34
2022-10-07T03:43:07.811Z,101930.28
2022-10-07T03:44:10.170Z,101935.56
2022-10-07T03:45:12.564Z,101940.31
2022-10-07T03:46:14.933Z,101940.31
2022-10-07T03:47:18.980Z,101940.53
2022-10-07T03:48:21.697Z,101941.53
2022-10-07T03:49:24.412Z,101943.34
2022-10-07T03:50:27.132Z,101948.91
2022-10-07T03:51:29.520Z,101946.03
2022-10-07T03:52:32.205Z,101946.03
2022-10-07T03:53:34.631Z,101949.44
2022-10-07T03:54:37.913Z,101942.41
2022-10-07T03:55:41.259Z,101954.28
2022-10-07T03:56:47.861Z,101944.81
2022-10-07T03:58:00.027Z,101946.66
2022-10-07T03:59:10.366Z,101950.63
2022-10-07T04:00:13.543Z,101949.28
2022-10-07T04:01:28.258Z,101951.09
2022-10-07T04:02:36.907Z,101948.63
2022-10-07T04:03:39.392Z,101948.34
2022-10-07T04:04:43.442Z,101952.75
2022-10-07T04:06:01.562Z,101948.28
2022-10-07T04:07:05.676Z,101952.47
2022-10-07T04:08:15.443Z,101949.91
2022-10-07T04:09:21.136Z,101947.75
2022-10-07T04:10:24.878Z,101953.00
2022-10-07T04:11:27.357Z,101951.97
2022-10-07T04:12:33.628Z,101942.75
2022-10-07T04:13:37.417Z,101939.06
2022-10-07T04:14:40.872Z,101949.13
2022-10-07T04:15:43.363Z,101949.38
2022-10-07T04:16:46.053Z,101946.47
2022-10-07T04:17:49.886Z,101947.28
2022-10-07T04:18:56.235Z,101948.81
2022-10-07T04:20:00.239Z,101944.63
2022-10-07T04:21:03.211Z,101946.25
2022-10-07T04:22:08.815Z,101939.91
2022-10-07T04:23:12.677Z,101943.06
2022-10-07T04:24:15.842Z,101944.13
2022-10-07T04:25:37.766Z,101942.75
2022-10-07T04:26:45.563Z,101949.59
2022-10-07T04:27:57.168Z,101941.44
2022-10-07T04:29:00.905Z,101941.44
2022-10-07T04:30:05.081Z,101939.28
2022-10-07T04:31:17.454Z,101941.91
2022-10-07T04:32:25.121Z,101944.00
2022-10-07T04:33:33.219Z,101945.06
2022-10-07T04:34:35.457Z,101946.84
2022-10-07T04:35:41.333Z,101950.84
2022-10-07T04:36:44.589Z,101952.88
2022-10-07T04:37:55.845Z,101953.75
2022-10-07T04:39:02.608Z,101951.19
2022-10-07T04:40:13.835Z,101939.56
2022-10-07T04:41:16.681Z,101947.69
2022-10-07T04:42:37.852Z,101951.94
2022-10-07T04:43:40.404Z,101948.28
2022-10-07T04:44:47.408Z,101946.94
2022-10-07T04:45:53.873Z,101950.84
2022-10-07T04:47:00.444Z,101952.47
2022-10-07T04:48:08.572Z,101946.94
2022-10-07T04:49:12.309Z,101948.94
2022-10-07T04:50:14.666Z,101946.56
2022-10-07T04:51:26.331Z,101954.44
2022-10-07T04:52:36.194Z,101952.25
2022-10-07T04:53:39.558Z,101950.13
2022-10-07T04:54:43.367Z,101945.88
2022-10-07T04:55:48.969Z,101951.94
2022-10-07T04:56:52.203Z,101946.34
2022-10-07T04:57:58.630Z,101950.22
2022-10-07T04:59:01.031Z,101948.06
2022-10-07T05:00:05.498Z,101949.28
2022-10-07T05:01:10.027Z,101949.75
2022-10-07T05:02:15.145Z,101952.34
2022-10-07T05:03:20.223Z,101947.56
2022-10-07T05:04:24.205Z,101946.97
2022-10-07T05:05:31.275Z,101953.75
2022-10-07T05:06:34.397Z,101959.53
2022-10-07T05:07:36.817Z,101957.09
2022-10-07T05:08:42.404Z,101950.16
2022-10-07T05:09:46.128Z,101950.97
2022-10-07T05:10:54.481Z,101959.22
2022-10-07T05:11:56.815Z,101958.94
2022-10-07T05:12:59.089Z,101956.50
2022-10-07T05:14:02.200Z,101951.78
2022-10-07T05:15:06.751Z,101959.63
2022-10-07T05:16:09.849Z,101954.53
2022-10-07T05:17:14.009Z,101962.75
2022-10-07T05:18:16.507Z,101957.91
2022-10-07T05:19:20.464Z,101958.81
2022-10-07T05:20:23.498Z,101962.81
2022-10-07T05:21:25.988Z,101952.94
2022-10-07T05:22:28.501Z,101960.22
2022-10-07T05:23:31.929Z,101967.31
2022-10-07T05:24:36.705Z,101962.16
2022-10-07T05:25:39.169Z,101961.22
2022-10-07T05:26:41.703Z,101961.47
2022-10-07T05:27:44.982Z,101956.78
2022-10-07T05:28:49.585Z,101964.16
2022-10-07T05:29:57.489Z,101958.63
2022-10-07T05:31:14.028Z,101963.16
2022-10-07T05:32:18.773Z,101968.41
2022-10-07T05:33:21.630Z,101966.78
2022-10-07T05:34:25.381Z,101964.72
2022-10-07T05:35:32.322Z,101963.34
2022-10-07T05:36:35.360Z,101959.59
2022-10-07T05:37:39.830Z,101960.81
2022-10-07T05:38:42.322Z,101961.00
2022-10-07T05:39:44.701Z,101958.16
2022-10-07T05:41:02.416Z,101960.50
2022-10-07T05:42:07.097Z,101966.16
2022-10-07T05:43:16.203Z,101964.91
2022-10-07T05:44:18.788Z,101964.00
2022-10-07T05:45:22.733Z,101958.69
2022-10-07T05:46:25.457Z,101967.81
2022-10-07T05:47:33.486Z,101960.78
2022-10-07T05:48:39.178Z,101966.91
2022-10-07T05:49:44.330Z,101972.06
2022-10-07T05:50:47.810Z,101967.34
2022-10-07T05:51:50.738Z,101969.81
2022-10-07T05:52:53.044Z,101969.53
2022-10-07T05:53:58.692Z,101971.00
2022-10-07T05:55:07.667Z,101966.03
2022-10-07T05:56:12.860Z,101966.81
2022-10-07T05:57:15.190Z,101971.91
2022-10-07T05:58:19.460Z,101980.59
2022-10-07T05:59:22.415Z,101973.75
2022-10-07T06:00:25.291Z,101969.69
2022-10-07T06:01:28.639Z,101972.50
2022-10-07T06:02:34.915Z,101975.63
2022-10-07T06:03:38.159Z,101971.94
2022-10-07T06:04:43.556Z,101965.03
2022-10-07T06:05:47.937Z,101972.50
2022-10-07T06:06:52.394Z,101975.16
2022-10-07T06:07:54.723Z,101979.19
2022-10-07T06:09:17.068Z,101970.28
2022-10-07T06:10:38.306Z,101976.88
2022-10-07T06:11:59.700Z,101976.38
2022-10-07T06:13:08.181Z,101970.91
2022-10-07T06:14:12.508Z,101979.63
2022-10-07T06:15:14.872Z,101971.06
2022-10-07T06:16:24.155Z,101971.25
2022-10-07T06:17:27.571Z,101974.25
2022-10-07T06:18:33.012Z,101978.22
2022-10-07T06:19:37.862Z,101975.81
2022-10-07T06:20:40.299Z,101970.38
2022-10-07T06:21:42.659Z,101970.81
2022-10-07T06:22:46.536Z,101977.25
2022-10-07T06:23:52.256Z,101974.63
2022-10-07T06:25:01.185Z,101972.41
2022-10-07T06:26:07.378Z,101975.09
2022-10-07T06:27:10.198Z,101971.63
2022-10-07T06:28:14.429Z,101977.13
2022-10-07T06:29:16.946Z,101973.84
2022-10-07T06:30:21.900Z,101972.25
2022-10-07T06:31:26.030Z,101970.31
2022-10-07T06:32:35.623Z,101971.63
2022-10-07T06:33:38.656Z,101967.78
2022-10-07T06:34:40.994Z,101973.56
2022-10-07T06:35:43.513Z,101978.25
2022-10-07T06:36:45.859Z,101972.38
2022-10-07T06:37:48.586Z,101973.22
2022-10-07T06:38:53.700Z,101966.69
2022-10-07T06:40:00.459Z,101965.91
2022-10-07T06:41:06.109Z,101979.34
2022-10-07T06:42:09.798Z,101966.28
2022-10-07T06:43:21.181Z,101961.28
2022-10-07T06:44:30.474Z,101964.19
2022-10-07T06:45:34.431Z,101970.66
2022-10-07T06:46:37.334Z,101975.84
2022-10-07T06:47:39.706Z,101973.22
2022-10-07T06:48:46.263Z,101969.28
2022-10-07T06:49:50.261Z,101966.66
2022-10-07T06:50:53.787Z,101975.34
2022-10-07T06:51:56.311Z,101973.16
2022-10-07T06:52:59.941Z,101963.78
2022-10-07T06:54:05.316Z,101973.59
2022-10-07T06:55:11.731Z,101968.81
2022-10-07T06:56:14.974Z,101969.13
2022-10-07T06:57:44.233Z,101972.59
2022-10-07T06:58:43.119Z,101967.66
2022-10-07T06:59:47.662Z,101972.06
2022-10-07T07:00:52.701Z,101972.50
2022-10-07T07:01:57.107Z,101964.94
2022-10-07T07:03:02.363Z,101961.78
2022-10-07T07:04:05.358Z,101965.81
2022-10-07T07:05:09.184Z,101969.25
2022-10-07T07:06:13.960Z,101961.72
2022-10-07T07:07:16.561Z,101959.03
2022-10-07T07:08:20.098Z,101965.84
2022-10-07T07:09:23.076Z,101968.19
2022-10-07T07:10:27.884Z,101971.66
2022-10-07T07:11:37.098Z,101969.41
2022-10-07T07:12:55.659Z,101962.09
2022-10-07T07:13:58.723Z,101969.00
2022-10-07T07:15:02.333Z,101969.38
2022-10-07T07:16:06.667Z,101964.78
2022-10-07T07:17:09.722Z,101957.47
2022-10-07T07:18:12.234Z,101969.03
2022-10-07T07:19:16.277Z,101960.13
2022-10-07T07:20:18.509Z,101967.09
2022-10-07T07:21:22.035Z,101965.06
2022-10-07T07:22:24.737Z,101960.63
2022-10-07T07:23:28.528Z,101963.69
2022-10-07T07:24:31.290Z,101963.75
2022-10-07T07:25:38.206Z,101955.69
2022-10-07T07:26:40.623Z,101959.00
2022-10-07T07:27:46.962Z,101954.38
2022-10-07T07:28:53.248Z,101955.50
2022-10-07T07:29:56.004Z,101953.44
2022-10-07T07:30:58.279Z,101948.22
2022-10-07T07:32:01.507Z,101951.25
2022-10-07T07:33:06.749Z,101949.69
2022-10-07T07:34:12.317Z,101947.00
2022-10-07T07:35:15.338Z,101946.34
2022-10-07T07:36:20.533Z,101949.31
2022-10-07T07:37:25.072Z,101943.34
2022-10-07T07:38:32.664Z,101943.19
2022-10-07T07:39:35.027Z,101946.28
2022-10-07T07:40:42.764Z,101935.16
2022-10-07T07:41:47.919Z,101950.03
2022-10-07T07:42:55.040Z,101952.78
2022-10-07T07:43:59.510Z,101949.75
2022-10-07T07:45:01.721Z,101953.59
2022-10-07T07:46:05.231Z,101947.72
2022-10-07T07:47:11.356Z,101944.31
2022-10-07T07:48:17.697Z,101951.28
2022-10-07T07:49:22.692Z,101952.84
2022-10-07T07:50:27.595Z,101947.03
2022-10-07T07:51:33.317Z,101942.75
2022-10-07T07:52:36.323Z,101947.72
2022-10-07T07:53:40.737Z,101948.84
2022-10-07T07:54:44.072Z,101944.69
2022-10-07T07:55:58.446Z,101944.34
2022-10-07T07:57:02.311Z,101948.47
2022-10-07T07:58:11.988Z,101951.09
2022-10-07T07:59:16.128Z,101934.22
2022-10-07T08:00:19.428Z,101948.72
2022-10-07T08:01:33.031Z,101945.31
2022-10-07T08:02:35.522Z,101941.47
2022-10-07T08:03:40.460Z,101934.22
2022-10-07T08:04:43.705Z,101939.53
2022-10-07T08:05:48.104Z,101943.72
2022-10-07T08:06:51.402Z,101937.19
2022-10-07T08:07:55.993Z,101931.38
2022-10-07T08:09:07.991Z,101937.88
2022-10-07T08:10:21.041Z,101941.22
2022-10-07T08:11:23.959Z,101937.50
2022-10-07T08:12:26.286Z,101935.88
2022-10-07T08:13:30.021Z,101941.84
2022-10-07T08:14:32.553Z,101945.69
2022-10-07T08:15:34.882Z,101935.53
2022-10-07T08:16:38.182Z,101937.47
2022-10-07T08:17:46.430Z,101942.09
2022-10-07T08:18:51.580Z,101938.97
2022-10-07T08:19:55.824Z,101932.91
2022-10-07T08:21:03.315Z,101935.66
2022-10-07T08:22:09.711Z,101940.72
2022-10-07T08:23:15.119Z,101933.31
2022-10-07T08:24:19.914Z,101934.34
2022-10-07T08:25:22.729Z,101936.41
2022-10-07T08:26:28.993Z,101932.16
2022-10-07T08:27:33.680Z,101931.06
2022-10-07T08:28:37.379Z,101925.78
2022-10-07T08:29:39.726Z,101928.47
2022-10-07T08:30:42.252Z,101930.84
2022-10-07T08:31:47.533Z,101925.47
2022-10-07T08:32:49.966Z,101930.84
2022-10-07T08:33:57.037Z,101925.44
2022-10-07T08:34:59.438Z,101918.53
2022-10-07T08:36:04.013Z,101920.84
2022-10-07T08:37:13.021Z,101923.53
2022-10-07T08:38:19.172Z,101919.31
2022-10-07T08:39:25.900Z,101923.56
2022-10-07T08:40:28.362Z,101924.25
2022-10-07T08:41:42.087Z,101918.16
2022-10-07T08:42:45.384Z,101920.47
2022-10-07T08:43:51.210Z,101916.59
2022-10-07T08:44:56.200Z,101915.81
2022-10-07T08:46:02.049Z,101916.25
2022-10-07T08:47:57.908Z,101920.47
2022-10-07T08:49:06.956Z,101912.00
2022-10-07T08:50:22.254Z,101915.03
2022-10-07T08:51:41.757Z,101911.97
2022-10-07T08:53:09.207Z,101908.47
2022-10-07T08:54:20.066Z,101912.31
2022-10-07T08:55:32.975Z,101911.13
2022-10-07T08:56:35.525Z,101905.06
2022-10-07T08:57:49.129Z,101901.09
2022-10-07T08:59:10.953Z,101897.63
2022-10-07T09:00:22.371Z,101892.63
2022-10-07T09:01:32.298Z,101896.78
2022-10-07T09:02:49.089Z,101895.16
2022-10-07T09:04:15.463Z,101897.13
2022-10-07T09:05:30.133Z,101892.72
2022-10-07T09:06:53.579Z,101890.13
2022-10-07T09:08:06.026Z,101889.94
2022-10-07T09:09:24.161Z,101894.00
2022-10-07T09:10:53.547Z,101895.47
2022-10-07T09:12:00.441Z,101889.22
2022-10-07T09:13:19.100Z,101883.34
2022-10-07T09:14:48.112Z,101888.50
2022-10-07T09:16:04.176Z,101891.66
2022-10-07T09:17:18.165Z,101889.66
2022-10-07T09:18:26.817Z,101885.03
2022-10-07T09:19:42.246Z,101879.44
2022-10-07T09:20:52.588Z,101876.75
2022-10-07T09:22:00.557Z,101887.84
2022-10-07T09:23:05.882Z,101881.19
2022-10-07T09:24:20.086Z,101888.59
2022-10-07T09:25:25.317Z,101879.94
2022-10-07T09:26:28.043Z,101881.50
2022-10-07T09:27:30.427Z,101885.84
2022-10-07T09:28:33.714Z,101879.59
2022-10-07T09:29:36.788Z,101886.50
2022-10-07T09:30:39.441Z,101874.00
2022-10-07T09:31:41.723Z,101874.00
2022-10-07T09:32:46.250Z,101879.47
2022-10-07T09:33:53.190Z,101874.09
2022-10-07T09:34:55.492Z,101875.53
2022-10-07T09:36:05.889Z,101873.41
2022-10-07T09:37:19.938Z,101866.78
2022-10-07T09:38:43.985Z,101870.19
2022-10-07T09:39:47.947Z,101865.06
2022-10-07T09:41:08.884Z,101860.75
2022-10-07T09:42:38.222Z,101863.31
2022-10-07T09:44:01.984Z,101860.28
2022-10-07T09:45:21.575Z,101863.66
2022-10-07T09:46:32.421Z,101872.88
2022-10-07T09:47:42.257Z,101860.03
2022-10-07T09:48:53.088Z,101854.38
2022-10-07T09:49:59.867Z,101856.50
2022-10-07T09:51:25.703Z,101859.88
2022-10-07T09:52:30.524Z,101857.50
2022-10-07T09:53:33.633Z,101853.97
2022-10-07T09:54:39.574Z,101853.94
2022-10-07T09:55:43.777Z,101854.63
2022-10-07T09:56:47.438Z,101857.50
2022-10-07T09:58:45.272Z,101853.00
2022-10-07T09:59:47.776Z,101852.50
2022-10-07T10:00:51.989Z,101849.34
2022-10-07T10:01:57.723Z,101853.28
2022-10-07T10:03:07.848Z,101854.63
2022-10-07T10:04:17.294Z,101849.03
2022-10-07T10:05:30.339Z,101843.84
2022-10-07T10:06:32.655Z,101842.09
2022-10-07T10:07:36.748Z,101847.69
2022-10-07T10:08:44.589Z,101848.69
2022-10-07T10:10:27.334Z,101846.28
2022-10-07T10:11:30.020Z,101843.78
2022-10-07T10:12:45.474Z,101844.97
2022-10-07T10:13:50.321Z,101839.84
2022-10-07T10:14:55.434Z,101838.59
2022-10-07T10:15:58.626Z,101833.00
2022-10-07T10:17:01.228Z,101838.25
2022-10-07T10:18:29.213Z,101826.72
2022-10-07T10:19:36.432Z,101830.28
2022-10-07T10:20:43.685Z,101829.53
2022-10-07T10:21:52.474Z,101823.19
2022-10-07T10:22:55.286Z,101819.53
2022-10-07T10:24:00.393Z,101822.19
2022-10-07T10:25:22.614Z,101828.31
2022-10-07T10:26:42.081Z,101820.66
2022-10-07T10:28:01.990Z,101818.34
2022-10-07T10:29:19.364Z,101818.22
2022-10-07T10:30:23.953Z,101810.78
2022-10-07T10:31:36.076Z,101816.22
2022-10-07T10:33:09.854Z,101817.56
2022-10-07T10:34:41.357Z,101822.56
2022-10-07T10:35:49.715Z,101809.38
2022-10-07T10:37:27.645Z,101811.94
2022-10-07T10:38:47.288Z,101809.41
2022-10-07T10:40:07.831Z,101799.16
2022-10-07T10:41:39.567Z,101806.28
2022-10-07T10:43:13.443Z,101803.19
2022-10-07T10:44:38.779Z,101798.47
2022-10-07T10:45:49.567Z,101796.06
2022-10-07T10:47:00.337Z,101796.81
2022-10-07T10:48:40.172Z,101800.13
2022-10-07T10:50:16.055Z,101792.88
2022-10-07T10:51:52.996Z,101796.28
2022-10-07T10:53:24.505Z,101794.25
2022-10-07T10:54:43.521Z,101791.03
2022-10-07T10:56:04.043Z,101792.25
2022-10-07T10:57:31.899Z,101796.31
2022-10-07T10:58:54.388Z,101796.97
2022-10-07T11:00:19.095Z,101792.09
2022-10-07T11:01:41.993Z,101792.59
2022-10-07T11:02:59.562Z,101794.59
2022-10-07T11:04:05.139Z,101788.97
2022-10-07T11:05:22.320Z,101779.84
2022-10-07T11:06:28.815Z,101774.56
2022-10-07T11:07:39.529Z,101784.72
2022-10-07T11:08:41.901Z,101780.16
2022-10-07T11:09:50.005Z,101767.81
2022-10-07T11:10:59.818Z,101785.00
2022-10-07T11:12:06.149Z,101769.56
2022-10-07T11:13:19.176Z,101772.41
2022-10-07T11:14:23.883Z,101770.94
2022-10-07T11:15:35.302Z,101771.00
2022-10-07T11:16:48.573Z,101764.00
2022-10-07T11:17:53.804Z,101764.50
2022-10-07T11:18:57.041Z,101765.03
2022-10-07T11:20:14.162Z,101758.31
2022-10-07T11:21:24.537Z,101757.72
2022-10-07T11:22:36.649Z,101755.97
2022-10-07T11:23:42.868Z,101755.97
2022-10-07T11:24:55.034Z,101751.53
2022-10-07T11:26:02.544Z,101742.09
2022-10-07T11:27:15.162Z,101740.69
2022-10-07T11:28:23.204Z,101741.78
2022-10-07T11:30:04.903Z,101736.22
2022-10-07T11:31:17.659Z,101739.19
2022-10-07T11:32:45.673Z,101735.84
2022-10-07T11:34:09.530Z,101731.88
2022-10-07T11:35:21.165Z,101737.75
2022-10-07T11:36:39.108Z,101731.59
2022-10-07T11:37:56.537Z,101726.66
2022-10-07T11:38:58.937Z,101722.06
2022-10-07T11:40:05.666Z,101725.88
2022-10-07T11:41:10.518Z,101724.66
2022-10-07T11:42:26.742Z,101726.38
2022-10-07T11:43:49.379Z,101728.78
2022-10-07T11:45:00.434Z,101722.00
2022-10-07T11:46:11.473Z,101714.06
2022-10-07T11:47:20.310Z,101719.19
2022-10-07T11:49:03.449Z,101719.38
2022-10-07T11:50:20.742Z,101720.28
2022-10-07T11:51:32.620Z,101720.78
2022-10-07T11:52:41.288Z,101715.50
2022-10-07T11:53:45.037Z,101712.81
2022-10-07T11:54:51.829Z,101716.00
2022-10-07T11:56:12.633Z,101705.09
2022-10-07T11:57:22.882Z,101710.25
2022-10-07T11:58:37.340Z,101705.81
2022-10-07T11:59:44.445Z,101704.75
2022-10-07T12:00:47.031Z,101692.66
2022-10-07T12:01:52.817Z,101701.09
2022-10-07T12:02:57.469Z,101708.63
2022-10-07T12:04:22.962Z,101696.19
2022-10-07T12:05:33.960Z,101703.97
2022-10-07T12:06:36.254Z,101702.22
2022-10-07T12:08:00.039Z,101694.91
2022-10-07T12:09:40.628Z,101698.63
2022-10-07T12:10:43.146Z,101697.63
2022-10-07T12:11:47.977Z,101699.22
2022-10-07T12:12:53.898Z,101690.84
2022-10-07T12:14:36.973Z,101692.69
2022-10-07T12:15:45.332Z,101697.28
2022-10-07T12:16:54.866Z,101692.91
2022-10-07T12:18:19.925Z,101694.97
2022-10-07T12:19:25.438Z,101685.75
2022-10-07T12:20:34.694Z,101700.59
2022-10-07T12:21:59.781Z,101692.81
2022-10-07T12:23:17.592Z,101697.06
2022-10-07T12:24:46.250Z,101688.53
2022-10-07T12:25:59.799Z,101683.28
2022-10-07T12:27:31.096Z,101683.94
2022-10-07T12:28:40.917Z,101680.03
2022-10-07T12:29:58.858Z,101669.97
2022-10-07T12:31:09.745Z,101684.03
2022-10-07T12:32:49.628Z,101681.13
2022-10-07T12:33:56.216Z,101681.72
2022-10-07T12:35:54.236Z,101683.69
2022-10-07T12:37:36.780Z,101668.78
2022-10-07T12:38:39.300Z,101672.66
2022-10-07T12:39:42.042Z,101671.00
2022-10-07T12:40:59.521Z,101665.34
2022-10-07T12:42:05.207Z,101668.13
2022-10-07T12:43:20.023Z,101664.78
2022-10-07T12:44:52.992Z,101659.34
2022-10-07T12:45:56.573Z,101666.78
2022-10-07T12:46:59.266Z,101656.38
2022-10-07T12:48:03.001Z,101655.13
2022-10-07T12:49:13.469Z,101656.03
2022-10-07T12:50:19.895Z,101662.91
2022-10-07T12:51:31.257Z,101650.56
2022-10-07T12:52:53.159Z,101659.56
2022-10-07T12:53:59.348Z,101644.56
2022-10-07T12:55:11.267Z,101648.75
2022-10-07T12:56:21.638Z,101642.44
2022-10-07T12:58:55.794Z,101648.59
2022-10-07T13:00:12.418Z,101649.88
2022-10-07T13:01:53.755Z,101647.53
2022-10-07T13:03:22.238Z,101636.41
2022-10-07T13:04:39.356Z,101639.13
2022-10-07T13:06:09.964Z,101634.78
2022-10-07T13:07:57.721Z,101631.75
2022-10-07T13:09:20.283Z,101639.03
2022-10-07T13:10:40.592Z,101633.66